sensor_id;sensor_type;location;lat;lon;timestamp;pressure;altitude;pressure_sealevel;temperature;humidity
21824;BME280;11074;48.596;9.238;2024-01-30T00:01:00;99620.38;;;3.14;93.92
21824;BME280;11074;48.596;9.238;2024-01-30T00:03:26;99613.59;;;3.19;92.94
21824;BME280;11074;48.596;9.238;2024-01-30T00:05:51;99611.66;;;2.97;92.73
21824;BME280;11074;48.596;9.238;2024-01-30T00:08:17;99606.72;;;2.70;94.76
21824;BME280;11074;48.596;9.238;2024-01-30T00:10:42;99608.72;;;2.60;94.86
21824;BME280;11074;48.596;9.238;2024-01-30T00:13:08;99612.00;;;2.54;94.94
21824;BME280;11074;48.596;9.238;2024-01-30T00:15:33;99616.47;;;2.61;95.43
21824;BME280;11074;48.596;9.238;2024-01-30T00:17:59;99617.47;;;2.68;95.25
21824;BME280;11074;48.596;9.238;2024-01-30T00:20:25;99621.88;;;3.00;95.18
21824;BME280;11074;48.596;9.238;2024-01-30T00:22:50;99614.47;;;2.87;93.95
21824;BME280;11074;48.596;9.238;2024-01-30T00:25:15;99610.47;;;3.08;93.06
21824;BME280;11074;48.596;9.238;2024-01-30T00:27:41;99618.19;;;3.17;93.19
21824;BME280;11074;48.596;9.238;2024-01-30T00:30:06;99620.25;;;2.75;92.27
21824;BME280;11074;48.596;9.238;2024-01-30T00:32:32;99613.69;;;2.63;93.98
21824;BME280;11074;48.596;9.238;2024-01-30T00:34:57;99618.94;;;2.79;93.06
21824;BME280;11074;48.596;9.238;2024-01-30T00:37:23;99619.94;;;2.78;93.30
21824;BME280;11074;48.596;9.238;2024-01-30T00:39:48;99624.53;;;2.92;93.87
21824;BME280;11074;48.596;9.238;2024-01-30T00:42:14;99610.53;;;2.75;93.19
21824;BME280;11074;48.596;9.238;2024-01-30T00:44:39;99621.25;;;2.50;95.33
21824;BME280;11074;48.596;9.238;2024-01-30T00:47:05;99621.25;;;2.50;94.24
21824;BME280;11074;48.596;9.238;2024-01-30T00:49:30;99620.25;;;2.51;94.52
21824;BME280;11074;48.596;9.238;2024-01-30T00:51:55;99623.91;;;2.58;94.73
21824;BME280;11074;48.596;9.238;2024-01-30T00:54:21;99627.84;;;2.70;94.05
21824;BME280;11074;48.596;9.238;2024-01-30T00:56:46;99620.59;;;2.72;93.19
21824;BME280;11074;48.596;9.238;2024-01-30T00:59:11;99625.88;;;2.64;93.28
21824;BME280;11074;48.596;9.238;2024-01-30T01:01:37;99610.53;;;2.75;94.78
21824;BME280;11074;48.596;9.238;2024-01-30T01:04:02;99609.88;;;2.73;92.99
21824;BME280;11074;48.596;9.238;2024-01-30T01:06:27;99612.53;;;2.49;93.75
21824;BME280;11074;48.596;9.238;2024-01-30T01:08:53;99614.50;;;2.47;94.50
21824;BME280;11074;48.596;9.238;2024-01-30T01:11:18;99618.13;;;2.70;94.36
21824;BME280;11074;48.596;9.238;2024-01-30T01:13:43;99626.38;;;2.67;94.54
21824;BME280;11074;48.596;9.238;2024-01-30T01:16:09;99627.53;;;2.73;95.15
21824;BME280;11074;48.596;9.238;2024-01-30T01:18:34;99634.09;;;2.93;94.32
21824;BME280;11074;48.596;9.238;2024-01-30T01:20:59;99630.78;;;2.99;94.16
21824;BME280;11074;48.596;9.238;2024-01-30T01:23:25;99625.53;;;2.83;94.19
21824;BME280;11074;48.596;9.238;2024-01-30T01:25:51;99623.06;;;2.65;95.47
21824;BME280;11074;48.596;9.238;2024-01-30T01:28:16;99624.69;;;2.90;94.13
21824;BME280;11074;48.596;9.238;2024-01-30T01:30:41;99623.22;;;2.88;94.48
21824;BME280;11074;48.596;9.238;2024-01-30T01:33:07;99614.81;;;2.84;94.18
21824;BME280;11074;48.596;9.238;2024-01-30T01:35:32;99625.38;;;2.76;94.16
21824;BME280;11074;48.596;9.238;2024-01-30T01:37:57;99620.94;;;2.69;95.17
21824;BME280;11074;48.596;9.238;2024-01-30T01:40:25;99620.75;;;2.86;94.75
21824;BME280;11074;48.596;9.238;2024-01-30T01:42:52;99622.03;;;2.98;94.07
21824;BME280;11074;48.596;9.238;2024-01-30T01:45:18;99616.91;;;3.05;94.23
21824;BME280;11074;48.596;9.238;2024-01-30T01:47:45;99615.09;;;3.05;94.01
21824;BME280;11074;48.596;9.238;2024-01-30T01:50:13;99617.78;;;2.73;95.34
21824;BME280;11074;48.596;9.238;2024-01-30T01:52:40;99621.91;;;2.76;95.04
21824;BME280;11074;48.596;9.238;2024-01-30T01:55:06;99617.94;;;2.88;94.71
21824;BME280;11074;48.596;9.238;2024-01-30T01:57:33;99621.41;;;2.64;95.49
21824;BME280;11074;48.596;9.238;2024-01-30T02:00:01;99618.78;;;2.72;95.99
21824;BME280;11074;48.596;9.238;2024-01-30T02:02:26;99621.41;;;2.72;95.75
21824;BME280;11074;48.596;9.238;2024-01-30T02:04:55;99609.84;;;2.89;94.61
21824;BME280;11074;48.596;9.238;2024-01-30T02:07:20;99620.75;;;2.70;95.67
21824;BME280;11074;48.596;9.238;2024-01-30T02:09:45;99614.66;;;2.70;96.00
21824;BME280;11074;48.596;9.238;2024-01-30T02:12:11;99621.72;;;2.93;95.55
21824;BME280;11074;48.596;9.238;2024-01-30T02:14:46;99620.56;;;2.96;94.45
21824;BME280;11074;48.596;9.238;2024-01-30T02:17:12;99625.38;;;2.84;94.19
21824;BME280;11074;48.596;9.238;2024-01-30T02:19:37;99621.72;;;2.77;94.78
21824;BME280;11074;48.596;9.238;2024-01-30T02:22:03;99625.84;;;2.88;94.40
21824;BME280;11074;48.596;9.238;2024-01-30T02:24:29;99625.53;;;2.91;94.29
21824;BME280;11074;48.596;9.238;2024-01-30T02:26:54;99624.22;;;2.87;94.18
21824;BME280;11074;48.596;9.238;2024-01-30T02:29:19;99617.28;;;2.78;94.63
21824;BME280;11074;48.596;9.238;2024-01-30T02:31:44;99615.59;;;2.93;94.67
21824;BME280;11074;48.596;9.238;2024-01-30T02:34:11;99615.78;;;2.91;94.35
21824;BME280;11074;48.596;9.238;2024-01-30T02:36:36;99614.97;;;2.91;94.56
21824;BME280;11074;48.596;9.238;2024-01-30T02:39:01;99608.69;;;2.84;94.28
21824;BME280;11074;48.596;9.238;2024-01-30T02:41:27;99616.63;;;2.76;94.58
21824;BME280;11074;48.596;9.238;2024-01-30T02:43:52;99618.75;;;2.80;94.30
21824;BME280;11074;48.596;9.238;2024-01-30T02:46:17;99612.34;;;2.75;93.82
21824;BME280;11074;48.596;9.238;2024-01-30T02:48:42;99610.84;;;2.80;94.61
21824;BME280;11074;48.596;9.238;2024-01-30T02:51:08;99609.22;;;2.79;94.64
21824;BME280;11074;48.596;9.238;2024-01-30T02:53:33;99610.84;;;2.80;94.90
21824;BME280;11074;48.596;9.238;2024-01-30T02:55:58;99604.75;;;2.72;94.42
21824;BME280;11074;48.596;9.238;2024-01-30T02:58:23;99603.59;;;2.66;94.91
21824;BME280;11074;48.596;9.238;2024-01-30T03:00:49;99608.53;;;2.61;94.42
21824;BME280;11074;48.596;9.238;2024-01-30T03:03:14;99611.53;;;2.58;94.47
21824;BME280;11074;48.596;9.238;2024-01-30T03:05:39;99611.69;;;2.65;94.15
21824;BME280;11074;48.596;9.238;2024-01-30T03:08:05;99612.50;;;2.73;94.00
21824;BME280;11074;48.596;9.238;2024-01-30T03:10:30;99604.59;;;2.65;94.85
21824;BME280;11074;48.596;9.238;2024-01-30T03:12:55;99607.25;;;2.41;92.54
21824;BME280;11074;48.596;9.238;2024-01-30T03:15:20;99598.50;;;2.40;94.61
21824;BME280;11074;48.596;9.238;2024-01-30T03:17:46;99607.88;;;2.51;93.51
21824;BME280;11074;48.596;9.238;2024-01-30T03:20:11;99612.34;;;2.42;93.87
21824;BME280;11074;48.596;9.238;2024-01-30T03:22:36;99613.44;;;2.00;95.49
21824;BME280;11074;48.596;9.238;2024-01-30T03:25:02;99609.31;;;2.05;95.77
21824;BME280;11074;48.596;9.238;2024-01-30T03:27:27;99614.94;;;2.02;96.92
21824;BME280;11074;48.596;9.238;2024-01-30T03:29:52;99611.34;;;2.19;96.16
21824;BME280;11074;48.596;9.238;2024-01-30T03:32:17;99620.94;;;2.28;96.28
21824;BME280;11074;48.596;9.238;2024-01-30T03:34:43;99620.72;;;2.22;96.56
21824;BME280;11074;48.596;9.238;2024-01-30T03:37:08;99612.00;;;2.21;95.47
21824;BME280;11074;48.596;9.238;2024-01-30T03:39:33;99617.25;;;2.21;96.13
21824;BME280;11074;48.596;9.238;2024-01-30T03:41:59;99614.16;;;2.34;95.65
21824;BME280;11074;48.596;9.238;2024-01-30T03:44:24;99614.00;;;2.35;95.16
21824;BME280;11074;48.596;9.238;2024-01-30T03:46:49;99612.00;;;2.45;95.56
21824;BME280;11074;48.596;9.238;2024-01-30T03:49:15;99621.91;;;2.35;94.75
21824;BME280;11074;48.596;9.238;2024-01-30T03:51:40;99620.41;;;2.25;94.51
21824;BME280;11074;48.596;9.238;2024-01-30T03:54:05;99620.97;;;1.87;95.66
21824;BME280;11074;48.596;9.238;2024-01-30T03:56:30;99620.66;;;1.90;95.53
21824;BME280;11074;48.596;9.238;2024-01-30T03:58:56;99624.44;;;1.79;96.46
21824;BME280;11074;48.596;9.238;2024-01-30T04:01:22;99618.53;;;1.93;96.36
21824;BME280;11074;48.596;9.238;2024-01-30T04:03:47;99617.41;;;2.04;95.35
21824;BME280;11074;48.596;9.238;2024-01-30T04:06:12;99617.88;;;1.91;96.35
21824;BME280;11074;48.596;9.238;2024-01-30T04:08:37;99629.25;;;2.00;96.53
21824;BME280;11074;48.596;9.238;2024-01-30T04:11:06;99622.66;;;1.96;96.45
21824;BME280;11074;48.596;9.238;2024-01-30T04:13:32;99622.81;;;1.86;95.61
21824;BME280;11074;48.596;9.238;2024-01-30T04:15:59;99632.69;;;1.84;96.15
21824;BME280;11074;48.596;9.238;2024-01-30T04:18:25;99620.47;;;1.75;96.24
21824;BME280;11074;48.596;9.238;2024-01-30T04:20:50;99618.84;;;1.82;96.02
21824;BME280;11074;48.596;9.238;2024-01-30T04:23:15;99622.97;;;1.84;96.02
21824;BME280;11074;48.596;9.238;2024-01-30T04:25:41;99621.31;;;1.75;95.90
21824;BME280;11074;48.596;9.238;2024-01-30T04:28:06;99620.97;;;1.87;96.44
21824;BME280;11074;48.596;9.238;2024-01-30T04:30:31;99622.13;;;1.84;95.72
21824;BME280;11074;48.596;9.238;2024-01-30T04:32:56;99616.41;;;1.97;95.67
21824;BME280;11074;48.596;9.238;2024-01-30T04:35:22;99618.59;;;2.17;95.09
21824;BME280;11074;48.596;9.238;2024-01-30T04:37:49;99623.53;;;2.04;94.35
21824;BME280;11074;48.596;9.238;2024-01-30T04:40:15;99617.25;;;2.13;93.96
21824;BME280;11074;48.596;9.238;2024-01-30T04:42:40;99619.69;;;1.91;94.52
21824;BME280;11074;48.596;9.238;2024-01-30T04:45:06;99624.50;;;2.03;95.01
21824;BME280;11074;48.596;9.238;2024-01-30T04:47:31;99622.72;;;2.12;94.01
21824;BME280;11074;48.596;9.238;2024-01-30T04:49:57;99625.16;;;2.13;94.13
21824;BME280;11074;48.596;9.238;2024-01-30T04:52:22;99632.38;;;1.95;94.48
21824;BME280;11074;48.596;9.238;2024-01-30T04:54:47;99632.59;;;1.60;94.42
21824;BME280;11074;48.596;9.238;2024-01-30T04:57:12;99625.94;;;1.90;94.92
21824;BME280;11074;48.596;9.238;2024-01-30T04:59:38;99628.13;;;2.02;94.89
21824;BME280;11074;48.596;9.238;2024-01-30T05:02:03;99631.47;;;1.70;94.56
21824;BME280;11074;48.596;9.238;2024-01-30T05:04:28;99630.38;;;1.73;94.98
21824;BME280;11074;48.596;9.238;2024-01-30T05:06:54;99630.09;;;2.00;95.06
21824;BME280;11074;48.596;9.238;2024-01-30T05:09:19;99625.09;;;1.89;94.46
21824;BME280;11074;48.596;9.238;2024-01-30T05:11:44;99633.25;;;2.04;93.99
21824;BME280;11074;48.596;9.238;2024-01-30T05:14:10;99624.44;;;1.87;94.55
21824;BME280;11074;48.596;9.238;2024-01-30T05:16:36;99629.25;;;2.00;93.88
21824;BME280;11074;48.596;9.238;2024-01-30T05:19:02;99634.88;;;1.97;93.47
21824;BME280;11074;48.596;9.238;2024-01-30T05:21:27;99628.63;;;1.56;94.79
21824;BME280;11074;48.596;9.238;2024-01-30T05:23:52;99629.06;;;1.85;93.98
21824;BME280;11074;48.596;9.238;2024-01-30T05:26:18;99631.50;;;1.78;94.33
21824;BME280;11074;48.596;9.238;2024-01-30T05:28:43;99628.78;;;2.04;93.34
21824;BME280;11074;48.596;9.238;2024-01-30T05:31:10;99631.59;;;2.11;92.93
21824;BME280;11074;48.596;9.238;2024-01-30T05:33:38;99628.88;;;1.78;93.37
21824;BME280;11074;48.596;9.238;2024-01-30T05:36:03;99641.03;;;1.71;93.95
21824;BME280;11074;48.596;9.238;2024-01-30T05:38:29;99638.06;;;1.66;93.26
21824;BME280;11074;48.596;9.238;2024-01-30T05:40:55;99638.94;;;1.83;93.25
21824;BME280;11074;48.596;9.238;2024-01-30T05:43:20;99634.16;;;1.87;93.28
21824;BME280;11074;48.596;9.238;2024-01-30T05:45:46;99635.16;;;1.86;92.62
21824;BME280;11074;48.596;9.238;2024-01-30T05:48:11;99641.41;;;1.84;93.52
21824;BME280;11074;48.596;9.238;2024-01-30T05:50:36;99636.50;;;1.48;94.00
21824;BME280;11074;48.596;9.238;2024-01-30T05:53:02;99642.72;;;1.72;93.70
21824;BME280;11074;48.596;9.238;2024-01-30T05:55:27;99632.16;;;1.72;94.72
21824;BME280;11074;48.596;9.238;2024-01-30T05:57:53;99636.00;;;1.86;93.91
21824;BME280;11074;48.596;9.238;2024-01-30T06:00:18;99641.91;;;1.80;94.50
21824;BME280;11074;48.596;9.238;2024-01-30T06:02:45;99633.00;;;1.73;94.12
21824;BME280;11074;48.596;9.238;2024-01-30T06:05:11;99636.72;;;1.62;94.25
21824;BME280;11074;48.596;9.238;2024-01-30T06:07:36;99638.03;;;1.58;94.82
21824;BME280;11074;48.596;9.238;2024-01-30T06:10:02;99645.09;;;1.58;94.14
21824;BME280;11074;48.596;9.238;2024-01-30T06:12:28;99646.75;;;1.59;94.47
21824;BME280;11074;48.596;9.238;2024-01-30T06:14:54;99640.19;;;1.63;93.88
21824;BME280;11074;48.596;9.238;2024-01-30T06:17:22;99635.47;;;1.82;94.19
21824;BME280;11074;48.596;9.238;2024-01-30T06:19:47;99640.09;;;1.80;93.96
21824;BME280;11074;48.596;9.238;2024-01-30T06:22:13;99637.41;;;1.64;94.09
21824;BME280;11074;48.596;9.238;2024-01-30T06:24:38;99644.19;;;1.75;93.62
21824;BME280;11074;48.596;9.238;2024-01-30T06:27:03;99644.19;;;1.75;92.72
21824;BME280;11074;48.596;9.238;2024-01-30T06:29:29;99642.59;;;1.48;94.56
21824;BME280;11074;48.596;9.238;2024-01-30T06:31:54;99644.88;;;1.43;94.61
21824;BME280;11074;48.596;9.238;2024-01-30T06:34:21;99650.06;;;1.61;94.00
21824;BME280;11074;48.596;9.238;2024-01-30T06:36:46;99643.19;;;1.76;93.53
21824;BME280;11074;48.596;9.238;2024-01-30T06:39:11;99648.84;;;1.89;93.10
21824;BME280;11074;48.596;9.238;2024-01-30T06:41:37;99654.47;;;1.94;93.15
21824;BME280;11074;48.596;9.238;2024-01-30T06:44:02;99653.97;;;1.91;92.47
21824;BME280;11074;48.596;9.238;2024-01-30T06:46:29;99655.78;;;1.90;93.21
21824;BME280;11074;48.596;9.238;2024-01-30T06:48:54;99660.09;;;1.99;92.66
21824;BME280;11074;48.596;9.238;2024-01-30T06:51:19;99650.63;;;1.72;92.51
21824;BME280;11074;48.596;9.238;2024-01-30T06:53:45;99652.16;;;1.91;93.43
21824;BME280;11074;48.596;9.238;2024-01-30T06:56:10;99653.28;;;1.80;91.89
21824;BME280;11074;48.596;9.238;2024-01-30T06:58:36;99659.28;;;1.57;94.00
21824;BME280;11074;48.596;9.238;2024-01-30T07:01:01;99659.97;;;1.67;93.55
21824;BME280;11074;48.596;9.238;2024-01-30T07:03:27;99654.78;;;1.91;93.55
21824;BME280;11074;48.596;9.238;2024-01-30T07:05:52;99654.91;;;1.81;92.91
21824;BME280;11074;48.596;9.238;2024-01-30T07:08:17;99657.16;;;1.68;93.75
21824;BME280;11074;48.596;9.238;2024-01-30T07:10:46;99663.44;;;1.67;92.81
21824;BME280;11074;48.596;9.238;2024-01-30T07:13:12;99682.09;;;1.82;93.17
21824;BME280;11074;48.596;9.238;2024-01-30T07:15:38;99672.06;;;1.86;93.07
21824;BME280;11074;48.596;9.238;2024-01-30T07:18:04;99675.34;;;1.79;92.46
21824;BME280;11074;48.596;9.238;2024-01-30T07:20:30;99673.69;;;1.45;94.23
21824;BME280;11074;48.596;9.238;2024-01-30T07:22:58;99676.19;;;1.46;94.41
21824;BME280;11074;48.596;9.238;2024-01-30T07:25:23;99673.75;;;1.53;94.74
21824;BME280;11074;48.596;9.238;2024-01-30T07:27:54;99670.00;;;1.63;94.12
21824;BME280;11074;48.596;9.238;2024-01-30T07:30:20;99672.00;;;1.69;94.45
21824;BME280;11074;48.596;9.238;2024-01-30T07:32:48;99676.75;;;1.66;95.24
21824;BME280;11074;48.596;9.238;2024-01-30T07:35:14;99679.75;;;1.71;95.14
21824;BME280;11074;48.596;9.238;2024-01-30T07:37:39;99682.78;;;1.92;94.43
21824;BME280;11074;48.596;9.238;2024-01-30T07:40:05;99674.06;;;1.83;94.56
21824;BME280;11074;48.596;9.238;2024-01-30T07:42:32;99672.66;;;1.71;94.52
21824;BME280;11074;48.596;9.238;2024-01-30T07:44:57;99672.84;;;1.70;95.35
21824;BME280;11074;48.596;9.238;2024-01-30T07:47:22;99674.66;;;1.69;95.06
21824;BME280;11074;48.596;9.238;2024-01-30T07:49:47;99670.09;;;1.88;95.08
21824;BME280;11074;48.596;9.238;2024-01-30T07:52:13;99673.41;;;1.90;94.78
21824;BME280;11074;48.596;9.238;2024-01-30T07:54:38;99675.13;;;2.07;94.96
21824;BME280;11074;48.596;9.238;2024-01-30T07:57:05;99672.34;;;2.24;93.78
21824;BME280;11074;48.596;9.238;2024-01-30T07:59:30;99672.53;;;2.31;93.46
21824;BME280;11074;48.596;9.238;2024-01-30T08:01:55;99681.44;;;2.38;93.45
21824;BME280;11074;48.596;9.238;2024-01-30T08:04:21;99679.78;;;2.45;93.01
21824;BME280;11074;48.596;9.238;2024-01-30T08:06:46;99669.91;;;2.39;92.57
21824;BME280;11074;48.596;9.238;2024-01-30T08:09:11;99675.69;;;2.51;92.63
21824;BME280;11074;48.596;9.238;2024-01-30T08:11:36;99671.88;;;2.53;92.93
21824;BME280;11074;48.596;9.238;2024-01-30T08:14:02;99672.88;;;2.52;93.08
21824;BME280;11074;48.596;9.238;2024-01-30T08:16:27;99676.16;;;2.30;92.93
21824;BME280;11074;48.596;9.238;2024-01-30T08:18:52;99674.69;;;2.52;93.08
21824;BME280;11074;48.596;9.238;2024-01-30T08:21:18;99678.84;;;2.62;92.66
21824;BME280;11074;48.596;9.238;2024-01-30T08:23:46;99670.91;;;2.70;92.41
21824;BME280;11074;48.596;9.238;2024-01-30T08:26:11;99672.59;;;2.79;92.12
21824;BME280;11074;48.596;9.238;2024-01-30T08:28:37;99665.47;;;2.88;91.36
21824;BME280;11074;48.596;9.238;2024-01-30T08:31:02;99665.63;;;2.94;91.59
21824;BME280;11074;48.596;9.238;2024-01-30T08:33:27;99665.63;;;3.02;90.73
21824;BME280;11074;48.596;9.238;2024-01-30T08:35:53;99666.28;;;2.96;91.29
21824;BME280;11074;48.596;9.238;2024-01-30T08:38:19;99665.44;;;2.96;91.49
21824;BME280;11074;48.596;9.238;2024-01-30T08:40:47;99667.25;;;3.03;91.34
21824;BME280;11074;48.596;9.238;2024-01-30T08:43:12;99663.81;;;3.11;91.90
21824;BME280;11074;48.596;9.238;2024-01-30T08:45:37;99674.84;;;3.15;91.03
21824;BME280;11074;48.596;9.238;2024-01-30T08:48:03;99667.94;;;3.14;91.50
21824;BME280;11074;48.596;9.238;2024-01-30T08:50:28;99658.50;;;3.19;91.36
21824;BME280;11074;48.596;9.238;2024-01-30T08:52:54;99665.94;;;3.24;91.11
21824;BME280;11074;48.596;9.238;2024-01-30T08:55:20;99655.97;;;3.34;90.63
21824;BME280;11074;48.596;9.238;2024-01-30T08:57:45;99671.50;;;3.37;90.33
21824;BME280;11074;48.596;9.238;2024-01-30T09:00:11;99663.03;;;3.49;90.04
21824;BME280;11074;48.596;9.238;2024-01-30T09:02:36;99664.38;;;3.45;90.29
21824;BME280;11074;48.596;9.238;2024-01-30T09:05:02;99670.31;;;3.47;90.48
21824;BME280;11074;48.596;9.238;2024-01-30T09:07:27;99667.03;;;3.45;90.99
21824;BME280;11074;48.596;9.238;2024-01-30T09:09:53;99677.09;;;3.50;91.03
21824;BME280;11074;48.596;9.238;2024-01-30T09:12:18;99669.34;;;3.48;91.49
21824;BME280;11074;48.596;9.238;2024-01-30T09:14:43;99665.34;;;3.52;91.60
21824;BME280;11074;48.596;9.238;2024-01-30T09:17:09;99672.75;;;3.57;91.54
21824;BME280;11074;48.596;9.238;2024-01-30T09:19:34;99677.69;;;3.68;91.45
21824;BME280;11074;48.596;9.238;2024-01-30T09:21:59;99667.75;;;3.70;92.30
21824;BME280;11074;48.596;9.238;2024-01-30T09:24:26;99676.50;;;3.79;91.28
21824;BME280;11074;48.596;9.238;2024-01-30T09:26:52;99679.78;;;3.81;90.79
21824;BME280;11074;48.596;9.238;2024-01-30T09:29:17;99672.63;;;3.89;90.30
21824;BME280;11074;48.596;9.238;2024-01-30T09:31:44;99684.69;;;3.92;90.88
21824;BME280;11074;48.596;9.238;2024-01-30T09:34:10;99677.59;;;3.92;91.32
21824;BME280;11074;48.596;9.238;2024-01-30T09:36:35;99679.53;;;4.06;90.33
21824;BME280;11074;48.596;9.238;2024-01-30T09:39:01;99674.53;;;4.11;90.99
21824;BME280;11074;48.596;9.238;2024-01-30T09:41:32;99674.81;;;4.16;90.89
21824;BME280;11074;48.596;9.238;2024-01-30T09:43:58;99681.34;;;4.28;90.08
21824;BME280;11074;48.596;9.238;2024-01-30T09:46:26;99681.31;;;4.37;90.57
21824;BME280;11074;48.596;9.238;2024-01-30T09:49:02;99678.22;;;4.33;90.20
21824;BME280;11074;48.596;9.238;2024-01-30T09:51:27;99679.44;;;4.45;89.56
21824;BME280;11074;48.596;9.238;2024-01-30T09:53:56;99679.22;;;4.55;89.69
21824;BME280;11074;48.596;9.238;2024-01-30T09:56:22;99682.28;;;4.66;89.89
21824;BME280;11074;48.596;9.238;2024-01-30T09:58:48;99666.66;;;4.71;89.80
21824;BME280;11074;48.596;9.238;2024-01-30T10:01:15;99659.00;;;4.76;89.31
21824;BME280;11074;48.596;9.238;2024-01-30T10:03:50;99674.13;;;4.90;89.45
21824;BME280;11074;48.596;9.238;2024-01-30T10:06:18;99674.63;;;4.94;89.60
21824;BME280;11074;48.596;9.238;2024-01-30T10:08:43;99670.22;;;5.01;87.99
21824;BME280;11074;48.596;9.238;2024-01-30T10:11:09;99674.41;;;4.96;88.85
21824;BME280;11074;48.596;9.238;2024-01-30T10:13:34;99665.34;;;5.13;88.42
21824;BME280;11074;48.596;9.238;2024-01-30T10:16:01;99668.28;;;5.32;87.92
21824;BME280;11074;48.596;9.238;2024-01-30T10:18:28;99664.81;;;5.32;88.12
21824;BME280;11074;48.596;9.238;2024-01-30T10:20:53;99657.31;;;5.35;87.30
21824;BME280;11074;48.596;9.238;2024-01-30T10:23:19;99660.53;;;5.45;88.12
21824;BME280;11074;48.596;9.238;2024-01-30T10:25:45;99661.81;;;5.49;87.49
21824;BME280;11074;48.596;9.238;2024-01-30T10:28:11;99654.22;;;5.61;86.78
21824;BME280;11074;48.596;9.238;2024-01-30T10:30:36;99655.41;;;5.59;86.71
21824;BME280;11074;48.596;9.238;2024-01-30T10:33:02;99654.66;;;5.65;86.47
21824;BME280;11074;48.596;9.238;2024-01-30T10:35:27;99657.69;;;5.62;87.06
21824;BME280;11074;48.596;9.238;2024-01-30T10:37:56;99663.97;;;5.75;86.94
21824;BME280;11074;48.596;9.238;2024-01-30T10:40:28;99654.94;;;5.84;86.24
21824;BME280;11074;48.596;9.238;2024-01-30T10:43:01;99658.50;;;5.91;86.41
21824;BME280;11074;48.596;9.238;2024-01-30T10:45:28;99655.03;;;6.05;86.82
21824;BME280;11074;48.596;9.238;2024-01-30T10:47:54;99654.19;;;6.05;85.71
21824;BME280;11074;48.596;9.238;2024-01-30T10:50:24;99649.00;;;5.97;85.04
21824;BME280;11074;48.596;9.238;2024-01-30T10:52:50;99651.78;;;6.10;84.43
21824;BME280;11074;48.596;9.238;2024-01-30T10:55:16;99646.94;;;6.14;84.40
21824;BME280;11074;48.596;9.238;2024-01-30T10:57:48;99646.00;;;6.21;83.30
21824;BME280;11074;48.596;9.238;2024-01-30T11:00:15;99643.34;;;6.21;83.85
21824;BME280;11074;48.596;9.238;2024-01-30T11:02:45;99638.91;;;6.28;84.57
21824;BME280;11074;48.596;9.238;2024-01-30T11:05:11;99645.88;;;6.29;83.93
21824;BME280;11074;48.596;9.238;2024-01-30T11:07:38;99638.19;;;6.34;83.82
21824;BME280;11074;48.596;9.238;2024-01-30T11:10:05;99636.56;;;6.33;83.70
21824;BME280;11074;48.596;9.238;2024-01-30T11:12:33;99640.25;;;6.39;83.74
21824;BME280;11074;48.596;9.238;2024-01-30T11:15:12;99637.88;;;6.44;83.52
21824;BME280;11074;48.596;9.238;2024-01-30T11:17:42;99635.03;;;6.45;82.25
21824;BME280;11074;48.596;9.238;2024-01-30T11:20:29;99638.38;;;6.54;82.93
21824;BME280;11074;48.596;9.238;2024-01-30T11:22:56;99637.94;;;6.50;82.45
21824;BME280;11074;48.596;9.238;2024-01-30T11:25:23;99633.44;;;6.51;82.53
21824;BME280;11074;48.596;9.238;2024-01-30T11:27:53;99633.13;;;6.60;82.67
21824;BME280;11074;48.596;9.238;2024-01-30T11:33:09;99629.00;;;6.79;82.06
21824;BME280;11074;48.596;9.238;2024-01-30T11:35:36;99626.41;;;6.86;81.89
21824;BME280;11074;48.596;9.238;2024-01-30T11:38:03;99620.38;;;6.98;81.32
21824;BME280;11074;48.596;9.238;2024-01-30T11:40:29;99623.66;;;7.00;81.99
21824;BME280;11074;48.596;9.238;2024-01-30T11:42:55;99624.69;;;6.99;80.94
21824;BME280;11074;48.596;9.238;2024-01-30T11:45:21;99624.28;;;7.02;80.47
21824;BME280;11074;48.596;9.238;2024-01-30T11:47:46;99619.22;;;7.07;81.25
21824;BME280;11074;48.596;9.238;2024-01-30T11:50:12;99616.88;;;7.25;80.89
21824;BME280;11074;48.596;9.238;2024-01-30T11:52:38;99622.88;;;7.34;80.49
21824;BME280;11074;48.596;9.238;2024-01-30T11:55:04;99612.00;;;7.29;79.74
21824;BME280;11074;48.596;9.238;2024-01-30T11:57:29;99615.53;;;7.36;80.05
21824;BME280;11074;48.596;9.238;2024-01-30T11:59:55;99608.22;;;7.45;78.96
21824;BME280;11074;48.596;9.238;2024-01-30T12:02:20;99604.72;;;7.44;78.86
21824;BME280;11074;48.596;9.238;2024-01-30T12:04:46;99604.13;;;7.49;78.88
21824;BME280;11074;48.596;9.238;2024-01-30T12:07:11;99607.66;;;7.56;78.46
21824;BME280;11074;48.596;9.238;2024-01-30T12:09:38;99603.94;;;7.50;78.40
21824;BME280;11074;48.596;9.238;2024-01-30T12:12:03;99592.88;;;7.53;78.63
21824;BME280;11074;48.596;9.238;2024-01-30T12:14:31;99583.50;;;7.57;78.54
21824;BME280;11074;48.596;9.238;2024-01-30T12:16:56;99583.28;;;7.52;78.90
21824;BME280;11074;48.596;9.238;2024-01-30T12:19:24;99585.56;;;7.62;78.47
21824;BME280;11074;48.596;9.238;2024-01-30T12:21:56;99575.56;;;7.70;78.00
21824;BME280;11074;48.596;9.238;2024-01-30T12:24:27;99578.88;;;7.79;77.68
21824;BME280;11074;48.596;9.238;2024-01-30T12:26:57;99575.22;;;7.86;77.60
21824;BME280;11074;48.596;9.238;2024-01-30T12:29:22;99575.44;;;7.85;77.11
21824;BME280;11074;48.596;9.238;2024-01-30T12:31:47;99570.91;;;7.79;78.42
21824;BME280;11074;48.596;9.238;2024-01-30T12:34:16;99573.03;;;8.03;80.00
21824;BME280;11074;48.596;9.238;2024-01-30T12:36:43;99559.38;;;8.52;82.95
21824;BME280;11074;48.596;9.238;2024-01-30T12:39:11;99554.66;;;8.41;76.50
21824;BME280;11074;48.596;9.238;2024-01-30T12:41:37;99562.25;;;8.57;78.37
21824;BME280;11074;48.596;9.238;2024-01-30T12:44:02;99556.75;;;8.59;77.57
21824;BME280;11074;48.596;9.238;2024-01-30T12:46:28;99560.22;;;8.72;76.07
21824;BME280;11074;48.596;9.238;2024-01-30T12:48:54;99561.63;;;8.94;74.88
21824;BME280;11074;48.596;9.238;2024-01-30T12:51:19;99550.78;;;8.96;75.39
21824;BME280;11074;48.596;9.238;2024-01-30T12:53:44;99557.47;;;9.31;76.54
21824;BME280;11074;48.596;9.238;2024-01-30T12:56:15;99550.44;;;9.43;73.87
21824;BME280;11074;48.596;9.238;2024-01-30T12:58:40;99559.91;;;9.39;76.49
21824;BME280;11074;48.596;9.238;2024-01-30T13:01:08;99552.06;;;9.51;72.94
21824;BME280;11074;48.596;9.238;2024-01-30T13:03:35;99554.91;;;9.62;72.76
21824;BME280;11074;48.596;9.238;2024-01-30T13:06:01;99549.56;;;9.62;72.82